sensor_id;sensor_type;location;lat;lon;timestamp;P1;durP1;ratioP1;P2;durP2;ratioP2
32746;SDS011;19118;50.860;13.662;2023-02-18T00:02:05;20.07;;;10.37;;
32746;SDS011;19118;50.860;13.662;2023-02-18T00:07:05;14.40;;;8.95;;
32746;SDS011;19118;50.860;13.662;2023-02-18T00:12:06;20.13;;;8.67;;
32746;SDS011;19118;50.860;13.662;2023-02-18T00:17:06;16.97;;;8.83;;
32746;SDS011;19118;50.860;13.662;2023-02-18T00:22:06;14.73;;;8.70;;
32746;SDS011;19118;50.860;13.662;2023-02-18T00:27:07;15.10;;;8.48;;
32746;SDS011;19118;50.860;13.662;2023-02-18T00:32:07;14.18;;;8.43;;
32746;SDS011;19118;50.860;13.662;2023-02-18T00:37:09;14.20;;;7.97;;
32746;SDS011;19118;50.860;13.662;2023-02-18T00:42:09;11.87;;;6.70;;
32746;SDS011;19118;50.860;13.662;2023-02-18T00:47:10;14.23;;;6.53;;
32746;SDS011;19118;50.860;13.662;2023-02-18T00:52:10;12.23;;;4.75;;
32746;SDS011;19118;50.860;13.662;2023-02-18T00:57:10;17.63;;;4.53;;
32746;SDS011;19118;50.860;13.662;2023-02-18T01:02:11;7.13;;;3.20;;
32746;SDS011;19118;50.860;13.662;2023-02-18T01:07:11;11.47;;;3.70;;
32746;SDS011;19118;50.860;13.662;2023-02-18T01:12:11;8.80;;;3.70;;
32746;SDS011;19118;50.860;13.662;2023-02-18T01:17:12;10.32;;;3.70;;
32746;SDS011;19118;50.860;13.662;2023-02-18T01:22:13;5.07;;;2.80;;
32746;SDS011;19118;50.860;13.662;2023-02-18T01:27:15;13.20;;;2.85;;
32746;SDS011;19118;50.860;13.662;2023-02-18T01:32:15;9.95;;;2.22;;
32746;SDS011;19118;50.860;13.662;2023-02-18T01:37:16;5.18;;;2.15;;
32746;SDS011;19118;50.860;13.662;2023-02-18T01:42:20;19.45;;;5.50;;
32746;SDS011;19118;50.860;13.662;2023-02-18T01:47:23;8.05;;;2.42;;
32746;SDS011;19118;50.860;13.662;2023-02-18T01:52:25;15.70;;;3.33;;
32746;SDS011;19118;50.860;13.662;2023-02-18T01:57:28;9.45;;;2.83;;
32746;SDS011;19118;50.860;13.662;2023-02-18T02:02:31;7.90;;;3.45;;
32746;SDS011;19118;50.860;13.662;2023-02-18T02:07:35;15.57;;;4.65;;
32746;SDS011;19118;50.860;13.662;2023-02-18T02:12:57;11.18;;;4.55;;
32746;SDS011;19118;50.860;13.662;2023-02-18T02:18:28;18.77;;;6.60;;
32746;SDS011;19118;50.860;13.662;2023-02-18T02:46:05;19.08;;;6.80;;
32746;SDS011;19118;50.860;13.662;2023-02-18T02:51:14;18.70;;;6.35;;
32746;SDS011;19118;50.860;13.662;2023-02-18T02:56:20;14.25;;;6.45;;
32746;SDS011;19118;50.860;13.662;2023-02-18T03:12:16;27.80;;;6.20;;
32746;SDS011;19118;50.860;13.662;2023-02-18T03:17:43;19.15;;;5.00;;
32746;SDS011;19118;50.860;13.662;2023-02-18T03:22:51;17.10;;;5.63;;
32746;SDS011;19118;50.860;13.662;2023-02-18T03:27:57;21.48;;;6.18;;
32746;SDS011;19118;50.860;13.662;2023-02-18T03:33:02;13.98;;;4.95;;
32746;SDS011;19118;50.860;13.662;2023-02-18T03:38:23;14.07;;;4.78;;
32746;SDS011;19118;50.860;13.662;2023-02-18T03:43:26;12.95;;;4.18;;
32746;SDS011;19118;50.860;13.662;2023-02-18T03:48:28;13.80;;;5.43;;
32746;SDS011;19118;50.860;13.662;2023-02-18T03:53:28;16.27;;;5.57;;
32746;SDS011;19118;50.860;13.662;2023-02-18T03:58:28;15.27;;;5.13;;
32746;SDS011;19118;50.860;13.662;2023-02-18T04:03:29;13.70;;;5.13;;
32746;SDS011;19118;50.860;13.662;2023-02-18T04:08:29;14.13;;;4.55;;
32746;SDS011;19118;50.860;13.662;2023-02-18T04:13:30;18.57;;;4.40;;
32746;SDS011;19118;50.860;13.662;2023-02-18T04:18:31;17.63;;;4.97;;
32746;SDS011;19118;50.860;13.662;2023-02-18T04:23:31;26.30;;;5.88;;
32746;SDS011;19118;50.860;13.662;2023-02-18T04:28:32;17.33;;;5.57;;
32746;SDS011;19118;50.860;13.662;2023-02-18T04:33:32;21.08;;;6.75;;
32746;SDS011;19118;50.860;13.662;2023-02-18T04:38:32;13.65;;;6.15;;
32746;SDS011;19118;50.860;13.662;2023-02-18T04:43:33;22.60;;;6.60;;
32746;SDS011;19118;50.860;13.662;2023-02-18T04:48:33;28.92;;;7.05;;
32746;SDS011;19118;50.860;13.662;2023-02-18T04:53:34;21.92;;;6.80;;
32746;SDS011;19118;50.860;13.662;2023-02-18T04:58:34;22.83;;;7.27;;
32746;SDS011;19118;50.860;13.662;2023-02-18T05:03:35;22.95;;;8.45;;
32746;SDS011;19118;50.860;13.662;2023-02-18T05:08:35;23.27;;;9.68;;
32746;SDS011;19118;50.860;13.662;2023-02-18T05:13:35;23.93;;;9.23;;
32746;SDS011;19118;50.860;13.662;2023-02-18T05:18:36;21.92;;;11.18;;
32746;SDS011;19118;50.860;13.662;2023-02-18T05:23:36;28.17;;;10.30;;
32746;SDS011;19118;50.860;13.662;2023-02-18T05:28:36;32.22;;;11.25;;
32746;SDS011;19118;50.860;13.662;2023-02-18T05:33:37;26.73;;;11.37;;
32746;SDS011;19118;50.860;13.662;2023-02-18T05:38:37;24.98;;;10.50;;
32746;SDS011;19118;50.860;13.662;2023-02-18T05:43:37;21.48;;;10.48;;
32746;SDS011;19118;50.860;13.662;2023-02-18T05:48:56;21.27;;;10.48;;
32746;SDS011;19118;50.860;13.662;2023-02-18T05:53:56;25.47;;;9.43;;
32746;SDS011;19118;50.860;13.662;2023-02-18T05:58:57;18.50;;;9.27;;
32746;SDS011;19118;50.860;13.662;2023-02-18T06:03:57;21.35;;;9.45;;
32746;SDS011;19118;50.860;13.662;2023-02-18T06:08:57;20.10;;;8.57;;
32746;SDS011;19118;50.860;13.662;2023-02-18T06:13:58;15.27;;;7.90;;
32746;SDS011;19118;50.860;13.662;2023-02-18T06:18:58;22.63;;;9.25;;
32746;SDS011;19118;50.860;13.662;2023-02-18T06:23:59;17.55;;;8.73;;
32746;SDS011;19118;50.860;13.662;2023-02-18T06:28:59;20.97;;;8.60;;
32746;SDS011;19118;50.860;13.662;2023-02-18T06:33:59;17.10;;;8.82;;
32746;SDS011;19118;50.860;13.662;2023-02-18T06:39:01;16.10;;;8.52;;
32746;SDS011;19118;50.860;13.662;2023-02-18T06:44:02;17.27;;;9.07;;
32746;SDS011;19118;50.860;13.662;2023-02-18T06:49:03;18.98;;;8.80;;
32746;SDS011;19118;50.860;13.662;2023-02-18T06:54:03;16.33;;;9.63;;
32746;SDS011;19118;50.860;13.662;2023-02-18T06:59:04;17.77;;;8.90;;
32746;SDS011;19118;50.860;13.662;2023-02-18T07:04:05;13.68;;;7.47;;
32746;SDS011;19118;50.860;13.662;2023-02-18T07:09:05;17.83;;;8.23;;
32746;SDS011;19118;50.860;13.662;2023-02-18T07:14:06;16.60;;;8.80;;
32746;SDS011;19118;50.860;13.662;2023-02-18T07:19:06;14.33;;;9.73;;
32746;SDS011;19118;50.860;13.662;2023-02-18T07:24:06;13.90;;;9.30;;
32746;SDS011;19118;50.860;13.662;2023-02-18T07:29:07;15.93;;;9.60;;
32746;SDS011;19118;50.860;13.662;2023-02-18T07:34:07;13.05;;;8.00;;
32746;SDS011;19118;50.860;13.662;2023-02-18T07:39:07;12.55;;;7.72;;
32746;SDS011;19118;50.860;13.662;2023-02-18T07:44:08;11.88;;;7.75;;
32746;SDS011;19118;50.860;13.662;2023-02-18T07:49:08;9.83;;;7.10;;
32746;SDS011;19118;50.860;13.662;2023-02-18T07:54:08;13.15;;;7.43;;
32746;SDS011;19118;50.860;13.662;2023-02-18T07:59:09;9.18;;;5.40;;
32746;SDS011;19118;50.860;13.662;2023-02-18T08:04:10;10.75;;;6.32;;
32746;SDS011;19118;50.860;13.662;2023-02-18T08:09:11;9.00;;;4.97;;
32746;SDS011;19118;50.860;13.662;2023-02-18T08:14:12;7.30;;;4.85;;
32746;SDS011;19118;50.860;13.662;2023-02-18T08:19:12;5.57;;;4.23;;
32746;SDS011;19118;50.860;13.662;2023-02-18T08:24:12;6.80;;;3.70;;
32746;SDS011;19118;50.860;13.662;2023-02-18T08:29:13;4.28;;;3.08;;
32746;SDS011;19118;50.860;13.662;2023-02-18T08:34:13;4.40;;;2.87;;
32746;SDS011;19118;50.860;13.662;2023-02-18T08:39:13;4.57;;;2.90;;
32746;SDS011;19118;50.860;13.662;2023-02-18T08:44:14;7.47;;;2.97;;
32746;SDS011;19118;50.860;13.662;2023-02-18T08:49:15;3.27;;;2.57;;
32746;SDS011;19118;50.860;13.662;2023-02-18T08:54:16;6.40;;;2.42;;
32746;SDS011;19118;50.860;13.662;2023-02-18T08:59:16;3.97;;;2.15;;
32746;SDS011;19118;50.860;13.662;2023-02-18T09:04:17;2.67;;;1.63;;
32746;SDS011;19118;50.860;13.662;2023-02-18T09:09:17;2.83;;;1.80;;
32746;SDS011;19118;50.860;13.662;2023-02-18T09:14:17;3.00;;;1.50;;
32746;SDS011;19118;50.860;13.662;2023-02-18T09:19:18;1.93;;;1.20;;
32746;SDS011;19118;50.860;13.662;2023-02-18T09:24:19;3.00;;;1.63;;
32746;SDS011;19118;50.860;13.662;2023-02-18T09:29:19;3.67;;;1.45;;
32746;SDS011;19118;50.860;13.662;2023-02-18T09:34:20;0.70;;;0.70;;
32746;SDS011;19118;50.860;13.662;2023-02-18T09:39:20;1.30;;;1.10;;
32746;SDS011;19118;50.860;13.662;2023-02-18T09:44:24;0.82;;;0.80;;
32746;SDS011;19118;50.860;13.662;2023-02-18T09:54:33;5.45;;;0.85;;
32746;SDS011;19118;50.860;13.662;2023-02-18T09:59:33;1.03;;;0.80;;
32746;SDS011;19118;50.860;13.662;2023-02-18T10:04:36;2.83;;;1.00;;
32746;SDS011;19118;50.860;13.662;2023-02-18T10:09:42;1.35;;;0.75;;
32746;SDS011;19118;50.860;13.662;2023-02-18T10:14:45;0.70;;;0.60;;
32746;SDS011;19118;50.860;13.662;2023-02-18T10:19:49;3.47;;;0.90;;
32746;SDS011;19118;50.860;13.662;2023-02-18T10:24:55;0.50;;;0.43;;
32746;SDS011;19118;50.860;13.662;2023-02-18T10:29:59;1.27;;;0.60;;
32746;SDS011;19118;50.860;13.662;2023-02-18T10:40:47;0.75;;;0.60;;
32746;SDS011;19118;50.860;13.662;2023-02-18T10:46:14;0.53;;;0.47;;
32746;SDS011;19118;50.860;13.662;2023-02-18T10:51:25;0.98;;;0.70;;
32746;SDS011;19118;50.860;13.662;2023-02-18T10:56:46;0.40;;;0.40;;
32746;SDS011;19118;50.860;13.662;2023-02-18T11:01:55;0.47;;;0.47;;
32746;SDS011;19118;50.860;13.662;2023-02-18T11:07:01;2.22;;;0.52;;
32746;SDS011;19118;50.860;13.662;2023-02-18T11:12:05;4.25;;;0.30;;
32746;SDS011;19118;50.860;13.662;2023-02-18T11:17:48;0.43;;;0.40;;
32746;SDS011;19118;50.860;13.662;2023-02-18T11:22:40;0.30;;;0.30;;
32746;SDS011;19118;50.860;13.662;2023-02-18T11:27:43;1.23;;;0.40;;
32746;SDS011;19118;50.860;13.662;2023-02-18T11:32:45;0.50;;;0.50;;
32746;SDS011;19118;50.860;13.662;2023-02-18T11:37:49;0.38;;;0.35;;
32746;SDS011;19118;50.860;13.662;2023-02-18T11:42:50;1.23;;;0.52;;
32746;SDS011;19118;50.860;13.662;2023-02-18T11:48:00;3.70;;;0.47;;
32746;SDS011;19118;50.860;13.662;2023-02-18T11:58:39;0.77;;;0.77;;
32746;SDS011;19118;50.860;13.662;2023-02-18T12:09:49;1.73;;;1.27;;
32746;SDS011;19118;50.860;13.662;2023-02-18T12:14:45;1.65;;;1.10;;
32746;SDS011;19118;50.860;13.662;2023-02-18T12:36:25;3.72;;;2.05;;
32746;SDS011;19118;50.860;13.662;2023-02-18T12:41:39;4.25;;;2.50;;
32746;SDS011;19118;50.860;13.662;2023-02-18T12:46:53;2.60;;;1.73;;
32746;SDS011;19118;50.860;13.662;2023-02-18T12:52:25;2.47;;;1.90;;
32746;SDS011;19118;50.860;13.662;2023-02-18T13:09:23;2.03;;;1.58;;
32746;SDS011;19118;50.860;13.662;2023-02-18T13:14:33;4.00;;;1.45;;
32746;SDS011;19118;50.860;13.662;2023-02-18T13:19:53;2.13;;;1.10;;
32746;SDS011;19118;50.860;13.662;2023-02-18T13:24:58;7.18;;;1.70;;
32746;SDS011;19118;50.860;13.662;2023-02-18T13:35:24;3.30;;;1.48;;
32746;SDS011;19118;50.860;13.662;2023-02-18T13:40:31;2.25;;;1.30;;
32746;SDS011;19118;50.860;13.662;2023-02-18T13:45:32;1.75;;;1.27;;
32746;SDS011;19118;50.860;13.662;2023-02-18T13:50:39;1.95;;;1.10;;
32746;SDS011;19118;50.860;13.662;2023-02-18T14:00:49;7.93;;;1.50;;
32746;SDS011;19118;50.860;13.662;2023-02-18T14:05:55;1.88;;;1.23;;
32746;SDS011;19118;50.860;13.662;2023-02-18T14:16:11;4.47;;;1.20;;
32746;SDS011;19118;50.860;13.662;2023-02-18T14:52:11;2.67;;;1.00;;
32746;SDS011;19118;50.860;13.662;2023-02-18T14:57:38;2.70;;;1.40;;
32746;SDS011;19118;50.860;13.662;2023-02-18T15:02:46;1.77;;;1.13;;
32746;SDS011;19118;50.860;13.662;2023-02-18T15:08:01;8.43;;;1.15;;
32746;SDS011;19118;50.860;13.662;2023-02-18T15:13:03;1.40;;;1.02;;
32746;SDS011;19118;50.860;13.662;2023-02-18T15:18:11;1.73;;;1.10;;
32746;SDS011;19118;50.860;13.662;2023-02-18T15:23:19;1.83;;;1.08;;
32746;SDS011;19118;50.860;13.662;2023-02-18T15:28:21;1.20;;;0.95;;
32746;SDS011;19118;50.860;13.662;2023-02-18T15:33:23;2.63;;;0.95;;
32746;SDS011;19118;50.860;13.662;2023-02-18T15:38:24;1.08;;;0.80;;
32746;SDS011;19118;50.860;13.662;2023-02-18T15:43:24;3.67;;;1.10;;
32746;SDS011;19118;50.860;13.662;2023-02-18T15:48:42;1.70;;;1.00;;
32746;SDS011;19118;50.860;13.662;2023-02-18T15:53:45;1.42;;;0.63;;
32746;SDS011;19118;50.860;13.662;2023-02-18T15:58:49;1.77;;;1.08;;
32746;SDS011;19118;50.860;13.662;2023-02-18T16:03:49;1.63;;;0.98;;
32746;SDS011;19118;50.860;13.662;2023-02-18T16:14:05;1.23;;;0.70;;
32746;SDS011;19118;50.860;13.662;2023-02-18T16:19:20;1.48;;;0.65;;
32746;SDS011;19118;50.860;13.662;2023-02-18T16:29:35;3.75;;;1.20;;
32746;SDS011;19118;50.860;13.662;2023-02-18T16:34:39;2.25;;;0.95;;
32746;SDS011;19118;50.860;13.662;2023-02-18T16:39:39;0.93;;;0.50;;
32746;SDS011;19118;50.860;13.662;2023-02-18T16:44:39;1.08;;;0.60;;
32746;SDS011;19118;50.860;13.662;2023-02-18T16:49:40;2.95;;;0.70;;
32746;SDS011;19118;50.860;13.662;2023-02-18T16:54:44;1.00;;;0.50;;
32746;SDS011;19118;50.860;13.662;2023-02-18T16:59:46;0.73;;;0.50;;
32746;SDS011;19118;50.860;13.662;2023-02-18T17:04:47;0.70;;;0.50;;
32746;SDS011;19118;50.860;13.662;2023-02-18T17:09:47;0.67;;;0.47;;
32746;SDS011;19118;50.860;13.662;2023-02-18T17:14:48;1.27;;;0.70;;
32746;SDS011;19118;50.860;13.662;2023-02-18T17:19:48;1.73;;;0.60;;
32746;SDS011;19118;50.860;13.662;2023-02-18T17:24:48;3.28;;;0.70;;
32746;SDS011;19118;50.860;13.662;2023-02-18T17:29:49;4.77;;;0.73;;
32746;SDS011;19118;50.860;13.662;2023-02-18T17:34:49;2.10;;;0.60;;
32746;SDS011;19118;50.860;13.662;2023-02-18T17:39:49;2.37;;;0.73;;
32746;SDS011;19118;50.860;13.662;2023-02-18T17:44:50;3.77;;;0.70;;
32746;SDS011;19118;50.860;13.662;2023-02-18T17:49:50;1.47;;;0.60;;
32746;SDS011;19118;50.860;13.662;2023-02-18T17:54:50;3.53;;;0.63;;
32746;SDS011;19118;50.860;13.662;2023-02-18T17:59:51;4.53;;;0.90;;
32746;SDS011;19118;50.860;13.662;2023-02-18T18:04:51;0.70;;;0.70;;
32746;SDS011;19118;50.860;13.662;2023-02-18T18:09:51;1.45;;;0.70;;
32746;SDS011;19118;50.860;13.662;2023-02-18T18:14:52;1.13;;;0.67;;
32746;SDS011;19118;50.860;13.662;2023-02-18T18:19:52;3.17;;;1.00;;
32746;SDS011;19118;50.860;13.662;2023-02-18T18:24:52;1.90;;;0.73;;
32746;SDS011;19118;50.860;13.662;2023-02-18T18:29:53;0.90;;;0.80;;
32746;SDS011;19118;50.860;13.662;2023-02-18T18:34:53;0.90;;;0.63;;
32746;SDS011;19118;50.860;13.662;2023-02-18T18:39:53;2.20;;;1.00;;
32746;SDS011;19118;50.860;13.662;2023-02-18T18:44:53;0.90;;;0.80;;
32746;SDS011;19118;50.860;13.662;2023-02-18T18:49:54;1.40;;;0.90;;
32746;SDS011;19118;50.860;13.662;2023-02-18T18:54:54;1.53;;;1.00;;
32746;SDS011;19118;50.860;13.662;2023-02-18T18:59:54;4.23;;;1.20;;
32746;SDS011;19118;50.860;13.662;2023-02-18T19:04:56;1.35;;;1.13;;
32746;SDS011;19118;50.860;13.662;2023-02-18T19:09:56;2.10;;;1.40;;
32746;SDS011;19118;50.860;13.662;2023-02-18T19:14:56;2.40;;;1.43;;
32746;SDS011;19118;50.860;13.662;2023-02-18T19:19:57;3.20;;;1.70;;
32746;SDS011;19118;50.860;13.662;2023-02-18T19:24:57;3.53;;;1.70;;
32746;SDS011;19118;50.860;13.662;2023-02-18T19:29:57;8.65;;;1.50;;
32746;SDS011;19118;50.860;13.662;2023-02-18T19:34:58;1.50;;;0.90;;
32746;SDS011;19118;50.860;13.662;2023-02-18T19:39:58;1.80;;;1.20;;
32746;SDS011;19118;50.860;13.662;2023-02-18T19:44:59;2.25;;;1.65;;
32746;SDS011;19118;50.860;13.662;2023-02-18T19:50:00;1.98;;;1.27;;
32746;SDS011;19118;50.860;13.662;2023-02-18T19:55:01;4.45;;;1.40;;
32746;SDS011;19118;50.860;13.662;2023-02-18T20:00:02;17.33;;;4.45;;
32746;SDS011;19118;50.860;13.662;2023-02-18T20:05:13;5.22;;;2.65;;
32746;SDS011;19118;50.860;13.662;2023-02-18T20:10:15;4.88;;;2.50;;
32746;SDS011;19118;50.860;13.662;2023-02-18T20:15:19;6.32;;;2.95;;
32746;SDS011;19118;50.860;13.662;2023-02-18T20:20:20;13.82;;;6.93;;
32746;SDS011;19118;50.860;13.662;2023-02-18T20:25:20;7.00;;;3.72;;
32746;SDS011;19118;50.860;13.662;2023-02-18T20:30:20;4.20;;;2.67;;
32746;SDS011;19118;50.860;13.662;2023-02-18T20:35:21;4.80;;;3.10;;
32746;SDS011;19118;50.860;13.662;2023-02-18T20:40:21;5.30;;;2.88;;
32746;SDS011;19118;50.860;13.662;2023-02-18T20:45:22;9.20;;;4.03;;
32746;SDS011;19118;50.860;13.662;2023-02-18T20:50:22;9.73;;;3.67;;
32746;SDS011;19118;50.860;13.662;2023-02-18T20:55:23;9.23;;;3.83;;
32746;SDS011;19118;50.860;13.662;2023-02-18T21:00:24;6.15;;;3.03;;
32746;SDS011;19118;50.860;13.662;2023-02-18T21:05:24;4.25;;;2.53;;
32746;SDS011;19118;50.860;13.662;2023-02-18T21:10:24;6.63;;;3.38;;
32746;SDS011;19118;50.860;13.662;2023-02-18T21:15:25;4.78;;;3.28;;
32746;SDS011;19118;50.860;13.662;2023-02-18T21:20:25;6.60;;;3.45;;
32746;SDS011;19118;50.860;13.662;2023-02-18T21:25:25;4.10;;;3.07;;
32746;SDS011;19118;50.860;13.662;2023-02-18T21:30:26;8.53;;;4.03;;
32746;SDS011;19118;50.860;13.662;2023-02-18T21:35:27;8.35;;;3.90;;
32746;SDS011;19118;50.860;13.662;2023-02-18T21:40:27;6.07;;;3.35;;
32746;SDS011;19118;50.860;13.662;2023-02-18T21:45:28;7.20;;;3.58;;
32746;SDS011;19118;50.860;13.662;2023-02-18T21:50:31;8.52;;;3.15;;
32746;SDS011;19118;50.860;13.662;2023-02-18T21:55:32;5.40;;;3.73;;
32746;SDS011;19118;50.860;13.662;2023-02-18T22:00:32;5.53;;;3.87;;
32746;SDS011;19118;50.860;13.662;2023-02-18T22:05:33;9.02;;;3.45;;
32746;SDS011;19118;50.860;13.662;2023-02-18T22:10:33;7.43;;;3.55;;
32746;SDS011;19118;50.860;13.662;2023-02-18T22:15:34;9.50;;;3.73;;
32746;SDS011;19118;50.860;13.662;2023-02-18T22:20:34;9.40;;;3.30;;
32746;SDS011;19118;50.860;13.662;2023-02-18T22:25:37;7.75;;;3.97;;
32746;SDS011;19118;50.860;13.662;2023-02-18T22:30:38;6.40;;;3.47;;
32746;SDS011;19118;50.860;13.662;2023-02-18T22:35:38;7.05;;;3.58;;
32746;SDS011;19118;50.860;13.662;2023-02-18T22:40:39;7.90;;;4.47;;
32746;SDS011;19118;50.860;13.662;2023-02-18T22:45:39;6.50;;;3.30;;
32746;SDS011;19118;50.860;13.662;2023-02-18T22:50:39;10.47;;;3.10;;
32746;SDS011;19118;50.860;13.662;2023-02-18T22:55:40;7.07;;;2.73;;
32746;SDS011;19118;50.860;13.662;2023-02-18T23:00:40;5.37;;;3.07;;
32746;SDS011;19118;50.860;13.662;2023-02-18T23:05:40;6.97;;;3.00;;
32746;SDS011;19118;50.860;13.662;2023-02-18T23:10:41;8.67;;;3.37;;
32746;SDS011;19118;50.860;13.662;2023-02-18T23:15:41;8.63;;;4.60;;
32746;SDS011;19118;50.860;13.662;2023-02-18T23:20:41;6.73;;;3.37;;
32746;SDS011;19118;50.860;13.662;2023-02-18T23:26:00;14.73;;;4.53;;
32746;SDS011;19118;50.860;13.662;2023-02-18T23:31:00;8.27;;;3.47;;
32746;SDS011;19118;50.860;13.662;2023-02-18T23:36:11;11.00;;;3.33;;
32746;SDS011;19118;50.860;13.662;2023-02-18T23:41:13;4.97;;;3.33;;
32746;SDS011;19118;50.860;13.662;2023-02-18T23:46:14;11.80;;;3.53;;
32746;SDS011;19118;50.860;13.662;2023-02-18T23:51:18;10.35;;;4.20;;
32746;SDS011;19118;50.860;13.662;2023-02-18T23:56:24;7.47;;;3.58;;
